Aérodrome :
LOGIN :

S'inscrire | Disclaimer

   EN    FR    IT 

 










Légende :    VFR   VFR Marginal   IFR   IFR Intensif   IFR Très Intensif
Visi : 
Plafond : 
>= 8 km
>= 3000ft
5 à 8 km
1000 à 3000 ft
1500m à 5 km
500 à 1000 ft
800 à 1500m
200 à 500 ft
< 800m
< 200 ft
Symboles :   Orages  Brouillard  Fortes neiges  Fortes précipitations  Vent > 20 kt
SIGMETs :   Divers  Orages  Givrage  Turbulence  Onde Orograph.  Cendres Volcan.






- Altitude de l'aérodrome : 392 ft
- Code IATA : CDG


LFPG - Paris-Aeroport Charles De Gaulle

DERNIER METAR :
  • 090630Z 03012G22KT 010V130 CAVOK 18/12 Q1025 NOSIG

METARs EXPIRÉS :
  • 090600Z 02011G22KT CAVOK 17/12 Q1025 NOSIG
  • 090530Z 02011KT 360V100 CAVOK 17/12 Q1024 NOSIG
  • 090500Z 01009KT 360V090 CAVOK 16/12 Q1024 NOSIG
  • 090430Z 01009KT CAVOK 16/12 Q1024 NOSIG
  • 090400Z 01009KT CAVOK 16/12 Q1024 NOSIG
  • 090330Z 01008G19KT 360V120 CAVOK 16/12 Q1024 NOSIG

TAF TAF LFPG
Valide du 09 à 06h jusqu'au 10 à 12h UTC


090500Z 0906/1012 02010KT CAVOK TX31/0915Z TN17/0906Z
ATIS : +33 1 48 62 10 92



MET'MAP, la Météo Aéronautique d'un coup d'oeil ! - Copyright ORBIFLY Décembre 2007 - Disclaimer

ORBIFLY MET'MAP TEAM :

Programmation & Développement : Alexandra Zaïnal
Sur une idée originale de : Baudouin d'Aumeries
Soutien technique & logistique : Manuel Goepfert
Assistance : Marc-Olivier Méhu




SOURCES & CREDITS :

   NOAA